Racecast

Jack Fulop

Temperance Bedford (MI) · 11 · SECMI D1MONROE · Compare head to head

Athlete rating 112.8 2026 TF season
Best race 124.4 XC
Races 73
Seasons 6 2020 — 2026

RankedNation #42471·MI #1823·MI D1 #1022·SEC #97·Team #7 ?

Rating scale ?

Cross Country

2025 XC 118.7

Temperance Bedford (MI) · Grade 11

Date Meet Event Result Place Rating Difficulty PR/SR Flags
2025-10-25 Lake Erie Metro Park OFFICIAL 5000m 18:36.1 57th · 5th on team 117.8 +0.055
2025-10-16 Hudson Mills Metropark - OFFICIAL 5000m 19:17.9 44th · 6th on team 112.6 +0.036 CSR
2025-10-11 Munson Park 5000m 18:52.6 19th · 5th on team 117.0 +0.054 CSR
2025-09-27 Lake Erie Metro Park OFFICIAL 5000m 17:55.2 35th · 5th on team 124.4 +0.055 ★PR ★CR ★R SR CSR RSR
2025-09-25 Indian Creek OFFICIAL 5000m 18:19.6 53rd · 5th on team 118.2 +0.039 ★CR CSR
2025-09-20 Ella Sharp Park OFFICIAL 5000m 18:15.9 206th · 5th on team 119.1 +0.038 ★CR CSR
2025-09-09 Willow Metropark OFFICIAL 5000m 18:08.5 64th · 5th on team 121.6 +0.048 PR ★CR R SR CSR RSR
2025-08-22 Saline High School 5000m 18:22.9 21st · 3rd on team 118.6 +0.039 PR ★CR SR CSR RSR

2024 XC 115.0

Temperance Bedford (MI) · Grade 10

Date Meet Event Result Place Rating Difficulty PR/SR Flags
2024-10-26 Lake Erie Metro Park OFFICIAL 5000m 18:59.2 27th · 3rd on team 116.6 +0.055
2024-10-17 Hudson Mills Metropark - OFFICIAL 5000m 18:35.96 26th · 1st on team 117.3 +0.036 ★CR CSR
2024-10-12 Munson Park 5000m 18:30.8 12th · 4th on team 119.7 +0.054 PR ★CR R SR CSR RSR
2024-09-28 Lake Erie Metro Park OFFICIAL 5000m 18:43.7 6th · 3rd on team 118.3 +0.055 CR CSR
2024-09-24 Pioneer HS 5000m 19:08.1 48th · 7th on team 117.4 +0.067 ★CR CSR
2024-09-10 Willow Metropark OFFICIAL 5000m 18:57 62nd · 6th on team 116.7 +0.048 CR CSR
2024-09-07 Hedges Boyer Park 5000m 18:31.8 70th · 1st on team 109.2 -0.036 PR ★CR SR CSR
2024-08-31 BGSU 5000m 20:03.3 101st · 11th on team 100.6 -0.038 ★CR CSR
2024-08-23 Ford Field/EE Ice Arena(LIVONIA) OFFICIAL 5000m 18:49.8 105th · 9th on team 119.5 +0.070 PR ★CR R SR CSR RSR

2020 XC 108.9

Temperance Bedford (MI) · Grade 6

Date Meet Event Result Place Rating Difficulty PR/SR Flags
2020-10-14 Indian Creek OFFICIAL 3200m 15:13 40th · 34th on team 111.5 +0.038 ★PR ★CR SR CSR
2020-10-07 Hudson Mills Metropark - OFFICIAL 3218m 16:10 34th · 25th on team 110.9 +0.062 ★PR ★CR SR CSR
2020-09-24 Indian Creek OFFICIAL 3200m 15:18 30th · 23rd on team 113.1 +0.038 PR CR R SR CSR RSR
2020-09-16 Rolling Hills 3218m 17:42.9 39th · 30th on team 102.8 +0.077 PR ★CR SR CSR
2020-09-09 Indian Creek OFFICIAL 3200m 15:38 26th · 26th on team 108.2 +0.038 PR CR R SR CSR RSR
2020-08-29 Indian Creek OFFICIAL 3200m 16:04 23rd · 23rd on team 107.0 +0.038 PR CR R SR CSR RSR

Track & Field

2026 TF 109.4

Temperance Bedford (MI) · Grade 11

Date Meet Event Result Place Rating Difficulty PR/SR Flags
2026-05-22 2026 MITCA D1 Team State 1600m 4:57.73 31st · 2nd on team 112.7 -0.037 ★PR SR
2026-05-22 2026 MITCA D1 Team State 3200m 11:11.37 33rd · 2nd on team 108.4 -0.037
2026-05-15 MHSAA LP Region 05-1 @ Saline 1600m 5:03.82 24th · 1st on team 109.8 -0.042
2026-05-07 SEC-HS Red Championship (EQ Approved) 1600m 4:58 29th · 2nd on team 112.9 -0.034 PR SR
2026-05-01 2026 Saline Golden Triangle (EQ Approved) 3200m 11:03.6 16th · 2nd on team 109.1 -0.042 SR
2026-04-28 SEC-HS: Bedford @ Monroe 800m 2:12.62 4th · 3rd on team 113.9 -0.032 ★PR SR RSR
2026-04-28 SEC-HS: Bedford @ Monroe 3200m 11:36.42 4th · 3rd on team 105.1 -0.032
2026-04-25 Railsplitter Invite (EQ approved) 1600m 5:12.04 12th · 2nd on team 108.1 -0.032
2026-04-20 SEC-HS: Bedford @ Pioneer 3200m 11:24.03 6th · 2nd on team 107.5 -0.028 SR
2026-04-17 6th Toledo St. John's Jesuit Titan Invite 1600m 5:07.19 14th · 2nd on team 108.7 -0.042 SR
2026-04-14 SEC-HS: Huron & Saline at Bedford 3200m 11:31.01 8th · 3rd on team 105.8 -0.033 SR
2026-04-07 SEC-HS: Bedford & Dexter @ Skyline 3200m 11:44.47 15th · 3rd on team 103.7 -0.033 SR
2026-03-26 Lincoln Indoor Invite 800m 2:13.02 23rd · 2nd on team 113.2 -0.035 PR SR RSR
2025-12-27 LAB Holiday Invite 800m 2:13.82 29th · 4th on team 112.4 -0.035 PR SR RSR

2025 TF 108.4

Temperance Bedford (MI) · Grade 10

Date Meet Event Result Place Rating Difficulty PR/SR Flags
2025-05-23 2025 MITCA D1 Team State 3200m 11:20.93 38th · 3rd on team 106.7 -0.037
2025-05-16 MHSAA LP Region 05-1 @ Ypsi Lincoln 1600m 5:08.4 22nd · 2nd on team 109.7 -0.032
2025-05-08 SEC-HS Championship (Red) (EQ Approved) 3200m 11:04.07 23rd · 3rd on team 109.8 -0.033
2025-05-01 Knight Classic 2025 3200m 11:11.61 2nd · 2nd on team 107.6 -0.043
2025-04-29 SEC-HS: Lincoln @ Bedford 3200m 11:51.92 3rd · 3rd on team 103.5 -0.033
2025-04-29 SEC-HS: Lincoln @ Bedford 1600m 5:06.1 4th · 3rd on team 111.0 -0.033 RSR
2025-04-22 SEC-HS: Bedford & Pioneer @ Monroe 3200m 10:59.62 6th · 3rd on team 110.7 -0.032 ★PR SR
2025-04-19 5th Titan Varsity Invite 1600m 5:09.21 16th · 2nd on team 108.1 -0.042
2025-04-15 SEC-HS: Bedford & Dexter @ Skyline 800m 2:19.62 21st · 5th on team 108.9 -0.033
2025-04-07 SEC-HS: Huron & Saline @ Bedford 3200m 11:41.77 9th · 3rd on team 103.8 -0.033 PR SR
2025-04-07 SEC-HS: Huron & Saline @ Bedford 1600m 5:04.27 7th · 4th on team 110.7 -0.033 PR SR
2025-02-15 SVSU - MITS Distance Fest 800m 2:15.57 75th · 4th on team 110.2 -0.041 PR SR
2025-02-08 LAB Indoor Meet #9 800m 2:15.82 64th · 3rd on team 110.8 -0.035 PR SR RSR
2025-01-11 LAB Indoor Meet #5 1600m 5:17.23 64th · 3rd on team 105.8 -0.035 SR RSR

2024 TF 104.4

Frog Leg Track Club (MI) · Grade 9

Date Meet Event Result Place Rating Difficulty PR/SR Flags
2024-06-30 Area 12 Regional Qualifier 1500m 5:09.79 18th · 2nd on team 100.1 -0.040 ★PR SR
2024-05-28 24 Larry Steeb Meet Of Championships 1600m 5:10.94 26th · 2nd on team 107.8 -0.036 PR SR
2024-05-23 Dundee Jim Beck Freshman Invite 1600m 5:15.46 2nd · 1st on team 107.7 -0.026
2024-05-23 Dundee Jim Beck Freshman Invite 800m 2:26.31 6th · 2nd on team 103.9 -0.026
2024-05-11 Erie Mason Invitational - 59th Annual 1600m 5:13.7 18th · 1st on team 107.8 -0.035 PR SR RSR
2024-04-30 SEC-HS: Bedford @ Lincoln 1600m 5:22.67 9th · 7th on team 104.4 -0.032 RSR
2024-04-30 SEC-HS: Bedford @ Lincoln 800m 2:25.45 13th · 9th on team 103.6 -0.032 PR SR
2024-04-25 Knight Classic 2024 JV 1600m 5:20.08 10th · 3rd on team 103.8 -0.043 PR SR RSR
2024-04-16 SEC-HS: Skyline & Bedford at Dexter 1600m 5:25.89 28th · 5th on team 102.7 -0.036 PR SR RSR
2024-04-09 SEC HS: Huron & Saline at Bedford lj DNS -0.033
2024-04-09 SEC HS: Huron & Saline at Bedford 1600m 5:28.8 23rd · 7th on team 102.6 -0.033 PR SR RSR

2023 TF 114.6

Temperance Bedford (MI) · Grade 8

Date Meet Event Result Place Rating Difficulty PR/SR Flags
2023-05-22 SEC-MS: Championship 1600m 5:41.78 16th · 3rd on team 114.7 -0.042
2023-05-22 SEC-MS: Championship 3200m 12:35.98 13th · 1st on team 111.2 -0.042
2023-05-17 23 Saline Middle School Hornet Relays 1600m 5:41.48 18th · 3rd on team 115.1 -0.042
2023-05-17 23 Saline Middle School Hornet Relays 800m 2:38.58 13th · 3rd on team 113.0 -0.042 PR SR
2023-05-15 SEC-MS: Lincoln & Bedford @ Monroe hj 4' 2 -0.032
2023-05-15 SEC-MS: Lincoln & Bedford @ Monroe 3200m 12:28.03 1st · 1st on team 114.3 -0.032
2023-05-15 SEC-MS: Lincoln & Bedford @ Monroe 1600m 5:38.3 3rd · 2nd on team 117.5 -0.032 PR R SR RSR
2023-05-08 SEC-MS Chelsea & Ypsi @Bedford hj 4-4.0 -0.033
2023-05-08 SEC-MS Chelsea & Ypsi @Bedford 3200m 12:09 1st · 1st on team 116.3 -0.033 PR R SR RSR

2022 TF

Temperance Bedford (MI) · Grade 7

Date Meet Event Result Place Rating Difficulty PR/SR Flags
2022-05-09 SEC-MS Tecumseh @ Bedford lj 11-1.0 -0.033
2022-05-09 SEC-MS Tecumseh @ Bedford 3200m 14:48 5th · 5th on team -0.033 PR SR